createdAt,value
2019-05-29T00:00:18.733Z,2.17
2019-05-29T00:02:49.901Z,2.30
2019-05-29T00:05:20.962Z,3.35
2019-05-29T00:07:52.284Z,2.75
2019-05-29T00:10:23.724Z,2.37
2019-05-29T00:12:54.850Z,1.52
2019-05-29T00:15:26.060Z,1.40
2019-05-29T00:17:57.154Z,1.50
2019-05-29T00:20:28.347Z,1.40
2019-05-29T00:22:59.902Z,1.30
2019-05-29T00:25:30.840Z,1.20
2019-05-29T00:28:01.872Z,1.02
2019-05-29T00:30:32.929Z,1.95
2019-05-29T00:33:04.075Z,2.37
2019-05-29T00:35:36.662Z,2.33
2019-05-29T00:38:08.480Z,2.47
2019-05-29T00:40:39.940Z,3.08
2019-05-29T00:43:11.270Z,3.25
2019-05-29T00:45:42.484Z,3.62
2019-05-29T00:48:14.043Z,3.70
2019-05-29T00:50:45.716Z,3.25
2019-05-29T00:53:18.339Z,3.12
2019-05-29T00:55:49.458Z,3.60
2019-05-29T00:58:20.730Z,3.12
2019-05-29T01:00:52.036Z,2.77
2019-05-29T01:03:23.240Z,2.95
2019-05-29T01:05:54.539Z,2.30
2019-05-29T01:08:25.720Z,2.80
2019-05-29T01:10:56.994Z,2.70
2019-05-29T01:13:28.057Z,2.40
2019-05-29T01:15:59.074Z,2.27
2019-05-29T01:18:30.222Z,2.37
2019-05-29T01:21:01.223Z,3.37
2019-05-29T01:23:32.390Z,2.37
2019-05-29T01:26:03.571Z,1.70
2019-05-29T01:28:36.186Z,2.52
2019-05-29T01:31:07.110Z,2.50
2019-05-29T01:33:38.382Z,2.90
2019-05-29T01:36:09.612Z,2.67
2019-05-29T01:38:40.666Z,2.60
2019-05-29T01:41:11.806Z,1.75
2019-05-29T01:43:42.645Z,2.10
2019-05-29T01:46:13.637Z,2.17
2019-05-29T01:48:44.829Z,1.98
2019-05-29T01:51:15.808Z,1.70
2019-05-29T01:53:46.759Z,1.60
2019-05-29T01:56:17.867Z,1.75
2019-05-29T01:58:49.562Z,1.57
2019-05-29T02:01:21.914Z,1.60
2019-05-29T02:03:53.048Z,1.70
2019-05-29T02:06:24.545Z,1.32
2019-05-29T02:08:55.838Z,2.67
2019-05-29T02:11:27.525Z,4.80
2019-05-29T02:13:58.995Z,3.65
2019-05-29T02:16:30.047Z,4.30
2019-05-29T02:19:01.139Z,3.45
2019-05-29T02:21:32.248Z,3.37
2019-05-29T02:24:03.305Z,3.52
2019-05-29T02:26:34.273Z,2.83
2019-05-29T02:29:05.503Z,2.70
2019-05-29T02:31:36.585Z,2.90
2019-05-29T02:34:07.736Z,3.25
2019-05-29T02:36:38.713Z,2.45
2019-05-29T02:39:09.959Z,1.80
2019-05-29T02:41:41.117Z,2.90
2019-05-29T02:44:12.522Z,2.35
2019-05-29T02:46:43.713Z,2.10
2019-05-29T02:49:14.963Z,2.98
2019-05-29T02:51:46.127Z,2.55
2019-05-29T02:54:17.339Z,2.08
2019-05-29T02:56:48.643Z,2.50
2019-05-29T02:59:21.137Z,2.10
2019-05-29T03:01:55.771Z,1.90
2019-05-29T03:04:28.200Z,2.62
2019-05-29T03:07:00.512Z,2.17
2019-05-29T03:09:32.651Z,1.90
2019-05-29T03:12:04.012Z,1.85
2019-05-29T03:14:35.041Z,1.82
2019-05-29T03:17:06.149Z,2.10
2019-05-29T03:19:37.305Z,1.30
2019-05-29T03:22:08.381Z,1.62
2019-05-29T03:24:39.731Z,1.55
2019-05-29T03:27:11.055Z,1.67
2019-05-29T03:29:42.151Z,1.27
2019-05-29T03:32:14.517Z,1.75
2019-05-29T03:34:47.874Z,1.80
2019-05-29T03:37:19.231Z,1.80
2019-05-29T03:39:50.398Z,1.42
2019-05-29T03:42:21.405Z,1.65
2019-05-29T03:44:52.550Z,1.30
2019-05-29T03:47:23.468Z,1.10
2019-05-29T03:49:54.400Z,0.90
2019-05-29T03:52:26.294Z,1.02
2019-05-29T03:54:57.889Z,1.10
2019-05-29T03:57:29.795Z,1.07
2019-05-29T04:00:01.742Z,0.93
2019-05-29T04:02:35.517Z,1.27
2019-05-29T04:05:08.907Z,1.10
2019-05-29T04:07:39.949Z,1.00
2019-05-29T04:10:11.435Z,1.05
2019-05-29T04:12:42.699Z,1.00
2019-05-29T04:15:14.133Z,1.27
2019-05-29T04:17:46.279Z,1.60
2019-05-29T04:20:17.444Z,1.55
2019-05-29T04:22:51.660Z,2.40
2019-05-29T04:25:22.676Z,5.50
2019-05-29T04:27:55.146Z,8.05
2019-05-29T04:30:28.084Z,5.17
2019-05-29T04:32:58.936Z,3.90
2019-05-29T04:35:32.395Z,2.70
2019-05-29T04:38:03.704Z,2.60
2019-05-29T04:40:35.214Z,2.52
2019-05-29T04:43:07.703Z,2.80
2019-05-29T04:45:40.022Z,3.00
2019-05-29T04:48:11.359Z,2.80
2019-05-29T04:50:42.541Z,3.12
2019-05-29T04:53:13.771Z,4.47
2019-05-29T04:55:44.858Z,8.33
2019-05-29T04:58:16.068Z,10.58
2019-05-29T05:00:58.583Z,15.32
2019-05-29T05:03:19.800Z,11.63
2019-05-29T05:05:51.020Z,10.65
2019-05-29T05:08:21.990Z,11.35
2019-05-29T05:10:53.462Z,8.78
2019-05-29T05:13:24.756Z,7.72
2019-05-29T05:15:59.122Z,10.05
2019-05-29T05:18:30.100Z,9.35
2019-05-29T05:21:01.228Z,7.75
2019-05-29T05:23:32.342Z,7.37
2019-05-29T05:26:03.460Z,9.68
2019-05-29T05:28:34.524Z,9.65
2019-05-29T05:31:05.779Z,8.73
2019-05-29T05:33:36.970Z,12.37
2019-05-29T05:36:08.209Z,12.45
2019-05-29T05:38:39.154Z,12.65
2019-05-29T05:41:10.319Z,9.30
2019-05-29T05:43:41.649Z,7.70
2019-05-29T05:46:12.829Z,6.87
2019-05-29T05:48:43.866Z,6.15
2019-05-29T05:51:15.148Z,8.50
2019-05-29T05:53:46.196Z,8.73
2019-05-29T05:56:18.685Z,12.28
2019-05-29T05:58:49.649Z,12.50
2019-05-29T06:01:20.843Z,11.53
2019-05-29T06:03:52.324Z,13.53
2019-05-29T06:06:23.555Z,12.88
2019-05-29T06:08:54.603Z,13.90
2019-05-29T06:11:25.762Z,7.80
2019-05-29T06:13:56.755Z,9.98
2019-05-29T06:16:27.745Z,9.50
2019-05-29T06:18:59.222Z,11.20
2019-05-29T06:21:30.212Z,13.78
2019-05-29T06:24:01.267Z,14.23
2019-05-29T06:26:32.796Z,12.00
2019-05-29T06:29:04.186Z,12.63
2019-05-29T06:31:35.414Z,14.75
2019-05-29T06:34:06.671Z,13.53
2019-05-29T06:36:39.523Z,16.10
2019-05-29T06:39:10.892Z,14.73
2019-05-29T06:41:42.147Z,14.00
2019-05-29T06:44:13.585Z,12.35
2019-05-29T06:46:45.486Z,14.00
2019-05-29T06:49:16.704Z,12.58
2019-05-29T06:51:47.823Z,14.07
2019-05-29T06:54:18.672Z,12.23
2019-05-29T06:56:49.768Z,11.35
2019-05-29T06:59:21.060Z,10.75
2019-05-29T07:01:52.175Z,10.10
2019-05-29T07:04:23.265Z,8.05
2019-05-29T07:06:54.593Z,8.73
2019-05-29T07:09:25.510Z,9.98
2019-05-29T07:11:57.191Z,20.72
2019-05-29T07:14:28.131Z,16.10
2019-05-29T07:16:59.163Z,13.55
2019-05-29T07:19:47.565Z,13.68
2019-05-29T07:22:03.383Z,12.65
2019-05-29T07:24:34.505Z,15.58
2019-05-29T07:27:05.543Z,19.23
2019-05-29T07:29:36.986Z,11.03
2019-05-29T07:32:09.093Z,9.80
2019-05-29T07:34:52.606Z,8.43
2019-05-29T07:37:13.265Z,10.65
2019-05-29T07:39:45.586Z,11.30
2019-05-29T07:42:16.865Z,16.23
2019-05-29T07:44:48.191Z,17.02
2019-05-29T07:47:19.379Z,14.53
2019-05-29T07:49:50.527Z,11.97
2019-05-29T07:52:21.621Z,10.03
2019-05-29T07:54:52.766Z,8.80
2019-05-29T07:57:23.780Z,12.35
2019-05-29T07:59:54.758Z,7.67
2019-05-29T08:02:25.844Z,5.70
2019-05-29T08:04:56.917Z,5.72
2019-05-29T08:07:27.921Z,6.10
2019-05-29T08:09:58.940Z,6.10
2019-05-29T08:12:30.005Z,7.53
2019-05-29T08:15:01.195Z,6.83
2019-05-29T08:17:32.831Z,7.97
2019-05-29T08:20:07.774Z,6.25
2019-05-29T08:22:38.575Z,7.78
2019-05-29T08:25:10.577Z,8.00
2019-05-29T08:27:42.643Z,6.55
2019-05-29T08:30:15.540Z,6.65
2019-05-29T08:32:46.950Z,9.35
2019-05-29T08:35:18.317Z,9.63
2019-05-29T08:37:49.385Z,10.18
2019-05-29T08:40:21.628Z,13.20
2019-05-29T08:42:53.225Z,18.25
2019-05-29T08:45:24.480Z,16.75
2019-05-29T08:47:56.915Z,16.25
2019-05-29T08:50:27.951Z,17.27
2019-05-29T08:53:02.418Z,17.42
2019-05-29T08:55:32.118Z,13.60
2019-05-29T08:58:03.614Z,16.80
2019-05-29T09:00:34.975Z,19.77
2019-05-29T09:03:07.422Z,21.07
2019-05-29T09:05:38.648Z,24.85
2019-05-29T09:08:09.887Z,26.45
2019-05-29T09:10:41.191Z,25.20
2019-05-29T09:13:12.661Z,17.95
2019-05-29T09:15:43.848Z,17.20
2019-05-29T09:18:15.385Z,18.27
2019-05-29T09:21:02.070Z,18.70
2019-05-29T09:23:21.062Z,19.60
2019-05-29T09:25:52.234Z,20.50
2019-05-29T09:28:22.217Z,17.85
2019-05-29T09:30:53.541Z,11.15
2019-05-29T09:33:24.926Z,8.58
2019-05-29T09:35:56.538Z,6.15
2019-05-29T09:38:27.752Z,6.90
2019-05-29T09:40:58.862Z,8.58
2019-05-29T09:43:30.856Z,6.90
2019-05-29T09:46:02.445Z,6.45
2019-05-29T09:48:48.833Z,10.18
2019-05-29T09:51:20.659Z,9.65
2019-05-29T09:53:40.346Z,18.57
2019-05-29T09:56:11.638Z,11.08
2019-05-29T09:58:42.989Z,9.68
2019-05-29T10:01:22.706Z,10.63
2019-05-29T10:03:47.603Z,10.78
2019-05-29T10:06:18.805Z,10.10
2019-05-29T10:08:49.835Z,9.45
2019-05-29T10:11:21.192Z,13.55
2019-05-29T10:13:53.696Z,15.20
2019-05-29T10:16:25.369Z,17.17
2019-05-29T10:18:58.492Z,12.33
2019-05-29T10:21:40.126Z,15.05
2019-05-29T10:24:04.170Z,12.33
2019-05-29T10:26:35.617Z,15.23
2019-05-29T10:29:09.663Z,11.43
2019-05-29T10:31:41.915Z,15.13
2019-05-29T10:34:13.822Z,11.08
2019-05-29T10:36:49.949Z,9.75
2019-05-29T10:39:19.113Z,7.10
2019-05-29T10:41:50.969Z,7.35
2019-05-29T10:44:22.046Z,6.22
2019-05-29T10:46:54.719Z,6.55
2019-05-29T10:49:26.062Z,6.05
2019-05-29T10:52:11.895Z,6.12
2019-05-29T10:54:29.816Z,5.65
2019-05-29T10:57:00.932Z,5.60
2019-05-29T10:59:32.301Z,9.63
2019-05-29T11:02:03.452Z,6.47
2019-05-29T11:04:34.855Z,6.67
2019-05-29T11:07:06.190Z,7.33
2019-05-29T11:09:44.593Z,8.40
2019-05-29T11:12:10.231Z,5.90
2019-05-29T11:14:41.405Z,6.80
2019-05-29T11:17:13.213Z,8.38
2019-05-29T11:19:44.306Z,7.90
2019-05-29T11:22:25.779Z,5.83
2019-05-29T11:24:49.913Z,7.70
2019-05-29T11:27:21.209Z,6.20
2019-05-29T11:29:53.253Z,6.70
2019-05-29T11:32:24.804Z,5.55
2019-05-29T11:34:57.409Z,6.22
2019-05-29T11:37:28.404Z,6.58
2019-05-29T11:39:59.955Z,7.15
2019-05-29T11:42:31.044Z,6.35
2019-05-29T11:45:03.630Z,6.00
2019-05-29T11:47:34.969Z,5.95
2019-05-29T11:50:19.023Z,7.72
2019-05-29T11:52:45.242Z,5.78
2019-05-29T11:55:17.248Z,6.10
2019-05-29T11:57:48.203Z,6.67
2019-05-29T12:00:21.287Z,5.72
2019-05-29T12:02:53.932Z,5.50
2019-05-29T12:05:25.921Z,6.55
2019-05-29T12:07:57.570Z,5.87
2019-05-29T12:10:28.847Z,6.30
2019-05-29T12:13:01.629Z,8.10
2019-05-29T12:15:33.041Z,6.00
2019-05-29T12:18:20.001Z,6.37
2019-05-29T12:20:37.166Z,6.50
2019-05-29T12:23:24.385Z,8.63
2019-05-29T12:25:41.322Z,7.60
2019-05-29T12:28:12.448Z,7.22
2019-05-29T12:30:43.659Z,6.22
2019-05-29T12:33:14.818Z,7.65
2019-05-29T12:35:49.508Z,9.03
2019-05-29T12:38:19.601Z,8.30
2019-05-29T12:40:51.047Z,8.20
2019-05-29T12:43:27.262Z,5.80
2019-05-29T12:45:55.657Z,5.67
2019-05-29T12:48:26.863Z,10.63
2019-05-29T12:50:58.339Z,12.10
2019-05-29T12:53:31.479Z,10.63
2019-05-29T12:56:04.628Z,11.73
2019-05-29T12:58:35.821Z,11.68
2019-05-29T13:01:06.889Z,11.12
2019-05-29T13:03:38.004Z,7.70
2019-05-29T13:06:09.219Z,6.67
2019-05-29T13:08:40.514Z,8.25
2019-05-29T13:11:13.245Z,8.78
2019-05-29T13:13:44.469Z,8.95
2019-05-29T13:16:15.828Z,10.75
2019-05-29T13:18:47.060Z,10.90
2019-05-29T13:21:18.257Z,9.60
2019-05-29T13:23:49.464Z,9.88
2019-05-29T13:26:20.831Z,7.33
2019-05-29T13:28:52.020Z,5.95
2019-05-29T13:31:23.623Z,5.53
2019-05-29T13:33:55.615Z,5.45
2019-05-29T13:36:26.800Z,5.58
2019-05-29T13:38:58.182Z,5.72
2019-05-29T13:41:29.409Z,5.12
2019-05-29T13:44:00.926Z,4.72
2019-05-29T13:46:32.117Z,6.05
2019-05-29T13:49:03.399Z,8.30
2019-05-29T13:51:34.662Z,8.28
2019-05-29T13:54:13.276Z,8.53
2019-05-29T13:56:38.749Z,8.35
2019-05-29T13:59:10.094Z,8.93
2019-05-29T14:01:41.351Z,6.33
2019-05-29T14:04:12.514Z,7.80
2019-05-29T14:06:43.582Z,10.20
2019-05-29T14:09:14.880Z,9.60
2019-05-29T14:11:46.093Z,7.30
2019-05-29T14:14:17.493Z,7.42
2019-05-29T14:16:48.762Z,10.03
2019-05-29T14:19:20.309Z,10.10
2019-05-29T14:21:51.470Z,9.10
2019-05-29T14:24:29.241Z,7.42
2019-05-29T14:26:55.440Z,5.37
2019-05-29T14:29:26.596Z,4.85
2019-05-29T14:31:57.774Z,5.35
2019-05-29T14:34:28.906Z,5.00
2019-05-29T14:37:02.734Z,6.08
2019-05-29T14:39:32.971Z,5.33
2019-05-29T14:42:04.358Z,3.70
2019-05-29T14:44:36.706Z,3.40
2019-05-29T14:47:08.078Z,3.40
2019-05-29T14:49:39.242Z,4.20
2019-05-29T14:52:11.590Z,3.10
2019-05-29T14:54:43.375Z,3.83
2019-05-29T14:57:25.241Z,3.80
2019-05-29T14:59:47.550Z,3.45
2019-05-29T15:02:23.737Z,3.40
2019-05-29T15:04:51.678Z,2.92
2019-05-29T15:07:23.187Z,4.42
2019-05-29T15:09:55.890Z,5.05
2019-05-29T15:12:27.001Z,4.42
2019-05-29T15:14:58.193Z,5.17
2019-05-29T15:17:29.267Z,4.47
2019-05-29T15:20:00.541Z,4.15
2019-05-29T15:22:32.542Z,4.83
2019-05-29T15:25:12.376Z,3.62
2019-05-29T15:27:37.854Z,2.98
2019-05-29T15:30:11.342Z,3.12
2019-05-29T15:32:43.229Z,3.58
2019-05-29T15:35:18.075Z,3.60
2019-05-29T15:37:47.521Z,2.35
2019-05-29T15:40:18.919Z,2.92
2019-05-29T15:42:50.157Z,2.35
2019-05-29T15:45:23.417Z,2.08
2019-05-29T15:47:54.668Z,2.47
2019-05-29T15:50:25.935Z,3.10
2019-05-29T15:52:57.078Z,6.50
2019-05-29T15:55:34.299Z,8.50
2019-05-29T15:58:01.146Z,4.05
2019-05-29T16:00:32.317Z,7.42
2019-05-29T16:03:03.450Z,8.38
2019-05-29T16:05:34.562Z,4.00
2019-05-29T16:08:06.122Z,3.15
2019-05-29T16:10:37.431Z,4.28
2019-05-29T16:13:08.746Z,4.25
2019-05-29T16:15:39.963Z,4.40
2019-05-29T16:18:19.909Z,6.97
2019-05-29T16:20:43.969Z,4.55
2019-05-29T16:23:30.732Z,4.12
2019-05-29T16:25:48.048Z,3.20
2019-05-29T16:28:19.343Z,6.12
2019-05-29T16:30:50.784Z,6.37
2019-05-29T16:33:23.238Z,4.30
2019-05-29T16:35:54.520Z,2.77
2019-05-29T16:38:25.673Z,7.30
2019-05-29T16:40:56.633Z,7.17
2019-05-29T16:43:27.654Z,4.12
2019-05-29T16:46:00.237Z,4.78
2019-05-29T16:48:31.256Z,5.85
2019-05-29T16:51:02.598Z,9.30
2019-05-29T16:53:33.745Z,3.90
2019-05-29T16:56:06.558Z,3.87
2019-05-29T16:58:39.885Z,4.28
2019-05-29T17:01:11.053Z,4.40
2019-05-29T17:03:42.014Z,5.30
2019-05-29T17:06:13.603Z,4.70
2019-05-29T17:08:44.853Z,3.87
2019-05-29T17:11:16.390Z,4.58
2019-05-29T17:13:47.925Z,4.53
2019-05-29T17:16:19.168Z,3.10
2019-05-29T17:18:51.379Z,3.17
2019-05-29T17:21:22.814Z,4.10
2019-05-29T17:23:53.806Z,4.85
2019-05-29T17:26:25.085Z,8.98
2019-05-29T17:28:56.615Z,5.12
2019-05-29T17:31:27.916Z,4.40
2019-05-29T17:33:58.918Z,4.75
2019-05-29T17:36:29.855Z,4.40
2019-05-29T17:39:00.972Z,4.85
2019-05-29T17:41:32.325Z,4.40
2019-05-29T17:44:03.642Z,4.83
2019-05-29T17:46:34.857Z,4.97
2019-05-29T17:49:06.083Z,4.40
2019-05-29T17:51:37.313Z,4.30
2019-05-29T17:54:08.469Z,4.70
2019-05-29T17:56:39.685Z,5.28
2019-05-29T17:59:10.864Z,6.45
2019-05-29T18:01:41.909Z,6.25
2019-05-29T18:04:13.191Z,5.00
2019-05-29T18:06:44.373Z,6.15
2019-05-29T18:09:17.046Z,6.75
2019-05-29T18:11:48.302Z,7.20
2019-05-29T18:14:19.387Z,7.10
2019-05-29T18:16:50.494Z,8.45
2019-05-29T18:19:21.799Z,7.75
2019-05-29T18:21:53.576Z,9.65
2019-05-29T18:24:26.068Z,9.00
2019-05-29T18:26:59.247Z,8.18
2019-05-29T18:29:30.045Z,7.90
2019-05-29T18:32:00.950Z,6.55
2019-05-29T18:34:32.071Z,10.13
2019-05-29T18:37:03.941Z,5.75
2019-05-29T18:39:35.283Z,5.10
2019-05-29T18:42:06.482Z,5.05
2019-05-29T18:44:37.653Z,5.95
2019-05-29T18:47:08.784Z,4.95
2019-05-29T18:49:39.896Z,5.72
2019-05-29T18:52:11.087Z,10.03
2019-05-29T18:54:42.153Z,7.40
2019-05-29T18:57:15.547Z,5.00
2019-05-29T18:59:46.017Z,4.33
2019-05-29T19:02:17.081Z,5.25
2019-05-29T19:04:48.204Z,4.10
2019-05-29T19:07:19.909Z,4.47
2019-05-29T19:09:51.026Z,4.47
2019-05-29T19:12:23.615Z,5.28
2019-05-29T19:14:54.886Z,4.08
2019-05-29T19:17:26.067Z,4.03
2019-05-29T19:19:57.414Z,4.12
2019-05-29T19:22:28.622Z,4.33
2019-05-29T19:24:59.843Z,6.72
2019-05-29T19:27:39.077Z,11.18
2019-05-29T19:30:04.614Z,12.35
2019-05-29T19:32:35.709Z,7.22
2019-05-29T19:35:08.992Z,7.90
2019-05-29T19:37:39.920Z,7.35
2019-05-29T19:40:11.884Z,8.08
2019-05-29T19:42:42.964Z,5.55
2019-05-29T19:45:15.924Z,9.93
2019-05-29T19:47:47.171Z,8.73
2019-05-29T19:50:18.724Z,7.15
2019-05-29T19:52:49.647Z,6.00
2019-05-29T19:55:20.970Z,6.30
2019-05-29T19:57:56.219Z,6.97
2019-05-29T20:00:26.041Z,6.97
2019-05-29T20:02:57.173Z,7.45
2019-05-29T20:05:28.642Z,6.28
2019-05-29T20:07:59.610Z,10.78
2019-05-29T20:10:31.345Z,9.03
2019-05-29T20:13:02.598Z,7.87
2019-05-29T20:15:33.949Z,8.15
2019-05-29T20:18:05.736Z,7.45
2019-05-29T20:20:36.861Z,6.50
2019-05-29T20:23:08.309Z,7.08
2019-05-29T20:25:39.517Z,7.28
2019-05-29T20:28:10.906Z,4.78
2019-05-29T20:30:42.739Z,6.47
2019-05-29T20:33:13.974Z,4.65
2019-05-29T20:35:45.119Z,4.55
2019-05-29T20:38:16.331Z,4.08
2019-05-29T20:40:47.423Z,4.70
2019-05-29T20:43:18.817Z,4.08
2019-05-29T20:45:49.904Z,4.58
2019-05-29T20:48:21.344Z,4.25
2019-05-29T20:50:52.441Z,3.40
2019-05-29T20:53:23.663Z,4.42
2019-05-29T20:55:54.798Z,5.28
2019-05-29T20:58:26.333Z,4.20
2019-05-29T21:00:57.483Z,6.05
2019-05-29T21:03:28.607Z,4.35
2019-05-29T21:05:59.526Z,4.10
2019-05-29T21:08:30.721Z,4.35
2019-05-29T21:11:01.691Z,4.62
2019-05-29T21:13:33.326Z,4.70
2019-05-29T21:16:04.489Z,4.70
2019-05-29T21:18:37.876Z,4.33
2019-05-29T21:21:09.013Z,4.47
2019-05-29T21:23:40.437Z,4.80
2019-05-29T21:26:11.708Z,4.20
2019-05-29T21:28:48.128Z,4.60
2019-05-29T21:31:15.569Z,4.20
2019-05-29T21:33:49.212Z,5.37
2019-05-29T21:36:19.742Z,4.55
2019-05-29T21:38:50.746Z,4.60
2019-05-29T21:41:22.509Z,4.47
2019-05-29T21:43:53.471Z,4.72
2019-05-29T21:46:25.243Z,4.37
2019-05-29T21:48:56.292Z,4.40
2019-05-29T21:51:27.694Z,4.35
2019-05-29T21:53:58.616Z,4.78
2019-05-29T21:56:29.959Z,4.75
2019-05-29T21:59:04.117Z,4.17
2019-05-29T22:01:34.180Z,4.65
2019-05-29T22:04:05.287Z,5.25
2019-05-29T22:06:36.581Z,5.30
2019-05-29T22:09:12.341Z,4.40
2019-05-29T22:11:43.915Z,4.30
2019-05-29T22:14:15.207Z,4.28
2019-05-29T22:16:46.533Z,4.30
2019-05-29T22:19:17.645Z,4.62
2019-05-29T22:21:48.865Z,4.87
2019-05-29T22:24:20.035Z,4.15
2019-05-29T22:26:51.222Z,5.33
2019-05-29T22:29:23.097Z,4.25
2019-05-29T22:31:55.487Z,4.62
2019-05-29T22:34:26.722Z,4.65
2019-05-29T22:36:57.832Z,4.55
2019-05-29T22:39:29.062Z,4.37
2019-05-29T22:42:00.168Z,4.25
2019-05-29T22:44:31.167Z,5.05
2019-05-29T22:47:02.326Z,4.28
2019-05-29T22:49:33.493Z,4.70
2019-05-29T22:52:05.041Z,4.45
2019-05-29T22:54:36.089Z,4.28
2019-05-29T22:57:07.229Z,4.50
2019-05-29T22:59:38.138Z,4.40
2019-05-29T23:02:09.380Z,4.92
2019-05-29T23:04:40.727Z,4.47
2019-05-29T23:07:11.961Z,4.55
2019-05-29T23:09:43.095Z,4.80
2019-05-29T23:12:14.519Z,4.70
2019-05-29T23:14:45.479Z,4.67
2019-05-29T23:17:16.654Z,4.87
2019-05-29T23:19:47.699Z,3.95
2019-05-29T23:22:19.113Z,4.53
2019-05-29T23:24:50.081Z,4.55
2019-05-29T23:27:21.275Z,4.17
2019-05-29T23:29:52.817Z,4.75
2019-05-29T23:32:24.228Z,5.05
2019-05-29T23:34:55.482Z,5.28
2019-05-29T23:37:26.613Z,4.80
2019-05-29T23:39:57.534Z,4.35
2019-05-29T23:42:28.463Z,4.92
2019-05-29T23:44:59.488Z,5.00
2019-05-29T23:47:30.992Z,4.30
2019-05-29T23:50:03.205Z,4.70
2019-05-29T23:52:34.933Z,4.85
2019-05-29T23:55:10.238Z,4.50
2019-05-29T23:57:41.684Z,4.90
